createdAt,value
2023-01-31T00:01:36.606Z,63.52
2023-01-31T00:16:41.206Z,63.28
2023-01-31T00:31:45.940Z,63.38
2023-01-31T00:46:50.584Z,62.40
2023-01-31T01:01:55.898Z,61.62
2023-01-31T01:17:00.877Z,60.71
2023-01-31T01:32:05.351Z,60.42
2023-01-31T01:47:14.965Z,59.71
2023-01-31T02:02:19.465Z,62.45
2023-01-31T02:17:24.501Z,60.81
2023-01-31T02:32:47.736Z,61.44
2023-01-31T02:48:04.939Z,61.58
2023-01-31T03:03:14.189Z,61.84
2023-01-31T03:18:21.000Z,62.53
2023-01-31T03:33:49.370Z,63.20
2023-01-31T03:48:55.436Z,64.29
2023-01-31T04:04:01.937Z,64.82
2023-01-31T04:19:07.537Z,65.55
2023-01-31T04:34:12.447Z,64.98
2023-01-31T04:49:16.966Z,64.22
2023-01-31T05:04:22.806Z,63.43
2023-01-31T05:19:27.464Z,62.43
2023-01-31T05:34:33.736Z,62.21
2023-01-31T05:49:38.049Z,62.33
2023-01-31T06:04:42.958Z,61.37
2023-01-31T06:19:47.221Z,60.77
2023-01-31T06:34:52.382Z,59.98
2023-01-31T06:49:56.980Z,62.93
2023-01-31T07:05:01.507Z,61.99
2023-01-31T07:20:06.495Z,63.61
2023-01-31T07:35:11.713Z,63.73
2023-01-31T07:50:16.170Z,63.18
2023-01-31T08:05:21.357Z,64.14
2023-01-31T08:20:26.173Z,64.78
2023-01-31T08:35:31.512Z,64.29
2023-01-31T08:50:36.651Z,63.46
2023-01-31T09:05:41.611Z,63.25
2023-01-31T09:20:46.662Z,62.97
2023-01-31T09:35:58.381Z,63.68
2023-01-31T09:51:03.144Z,64.73
2023-01-31T10:06:13.891Z,65.00
2023-01-31T10:21:23.122Z,64.75
2023-01-31T10:36:30.756Z,64.57
2023-01-31T10:51:38.608Z,65.18
2023-01-31T11:06:43.348Z,65.13
2023-01-31T11:21:50.925Z,64.75
2023-01-31T11:36:56.698Z,64.21
2023-01-31T11:52:20.382Z,63.46
2023-01-31T12:07:32.138Z,62.61
2023-01-31T12:22:45.421Z,61.86
2023-01-31T12:37:57.188Z,60.85
2023-01-31T12:53:13.916Z,60.07
2023-01-31T13:08:19.366Z,60.40
2023-01-31T13:23:31.922Z,60.97
2023-01-31T13:38:43.818Z,60.01
2023-01-31T13:53:52.685Z,60.05
2023-01-31T14:08:59.377Z,60.65
2023-01-31T14:24:06.624Z,60.54
2023-01-31T14:39:21.022Z,62.02
2023-01-31T14:54:31.148Z,63.45
2023-01-31T15:09:39.259Z,64.23
2023-01-31T15:24:47.894Z,65.17
2023-01-31T15:40:11.056Z,65.79
2023-01-31T15:55:16.033Z,66.03
2023-01-31T16:10:21.303Z,66.53
2023-01-31T16:25:25.601Z,66.85
2023-01-31T16:40:35.439Z,67.19
2023-01-31T16:55:39.803Z,67.28
2023-01-31T17:10:45.377Z,67.59
2023-01-31T17:25:49.571Z,67.59
2023-01-31T17:40:54.249Z,68.01
2023-01-31T17:55:58.761Z,68.44
2023-01-31T18:11:06.836Z,68.56
2023-01-31T18:26:11.464Z,68.46
2023-01-31T18:41:16.216Z,68.13
2023-01-31T18:56:21.085Z,67.39
2023-01-31T19:11:26.568Z,67.26
2023-01-31T19:26:33.626Z,67.59
2023-01-31T19:41:43.612Z,67.67
2023-01-31T19:56:58.720Z,67.61
2023-01-31T20:12:11.255Z,67.25
2023-01-31T20:27:19.874Z,67.32
2023-01-31T20:42:27.507Z,67.79
2023-01-31T20:57:36.347Z,67.60
2023-01-31T21:12:41.681Z,66.83
2023-01-31T21:27:46.477Z,65.74
2023-01-31T21:42:54.086Z,64.94
2023-01-31T21:57:58.489Z,63.87
2023-01-31T22:13:03.096Z,62.82
2023-01-31T22:28:07.322Z,62.30
2023-01-31T22:43:13.135Z,61.88
2023-01-31T22:58:17.896Z,61.64
2023-01-31T23:13:22.450Z,61.35
2023-01-31T23:28:26.603Z,61.88
2023-01-31T23:43:31.130Z,62.73
2023-01-31T23:58:35.746Z,63.33
